createdAt,value
2017-07-08T00:00:54.241Z,99.99
2017-07-08T00:02:06.287Z,99.99
2017-07-08T00:03:18.570Z,99.99
2017-07-08T00:04:30.890Z,99.99
2017-07-08T00:05:43.180Z,99.99
2017-07-08T00:06:55.853Z,99.99
2017-07-08T00:08:07.866Z,99.99
2017-07-08T00:09:20.467Z,99.99
2017-07-08T00:10:32.802Z,99.99
2017-07-08T00:11:45.139Z,99.99
2017-07-08T00:12:57.647Z,99.99
2017-07-08T00:14:09.895Z,99.99
2017-07-08T00:15:22.543Z,99.99
2017-07-08T00:16:34.763Z,99.99
2017-07-08T00:17:47.351Z,99.99
2017-07-08T00:18:59.915Z,99.99
2017-07-08T00:20:12.197Z,99.99
2017-07-08T00:21:24.181Z,99.99
2017-07-08T00:22:36.521Z,99.99
2017-07-08T00:23:49.093Z,99.99
2017-07-08T00:25:01.361Z,99.99
2017-07-08T00:26:13.008Z,99.99
2017-07-08T00:27:25.024Z,99.99
2017-07-08T00:28:37.715Z,99.99
2017-07-08T00:29:50.331Z,99.99
2017-07-08T00:31:02.606Z,99.99
2017-07-08T00:32:15.166Z,99.99
2017-07-08T00:33:27.485Z,99.99
2017-07-08T00:34:40.109Z,99.99
2017-07-08T00:35:52.425Z,99.99
2017-07-08T00:37:05.022Z,99.99
2017-07-08T00:38:17.382Z,99.99
2017-07-08T00:39:29.711Z,99.99
2017-07-08T00:40:41.975Z,99.99
2017-07-08T00:41:54.249Z,99.99
2017-07-08T00:43:06.203Z,99.99
2017-07-08T00:44:18.812Z,99.99
2017-07-08T00:45:31.402Z,99.99
2017-07-08T00:46:43.708Z,99.99
2017-07-08T00:47:56.340Z,99.99
2017-07-08T00:49:08.577Z,99.99
2017-07-08T00:50:21.160Z,99.99
2017-07-08T00:51:33.783Z,99.99
2017-07-08T00:52:45.754Z,99.99
2017-07-08T00:53:57.670Z,99.99
2017-07-08T00:55:09.887Z,99.99
2017-07-08T00:56:22.773Z,99.99
2017-07-08T00:57:35.362Z,99.99
2017-07-08T00:58:47.987Z,99.99
2017-07-08T00:59:59.916Z,99.99
2017-07-08T01:01:12.508Z,99.99
2017-07-08T01:02:25.096Z,99.99
2017-07-08T01:03:37.705Z,99.99
2017-07-08T01:04:50.325Z,99.99
2017-07-08T01:06:02.602Z,99.99
2017-07-08T01:07:15.137Z,99.99
2017-07-08T01:08:27.741Z,99.99
2017-07-08T01:09:40.358Z,99.99
2017-07-08T01:10:53.009Z,99.99
2017-07-08T01:12:05.289Z,99.99
2017-07-08T01:13:17.271Z,99.99
2017-07-08T01:14:29.853Z,99.99
2017-07-08T01:15:42.488Z,99.99
2017-07-08T01:16:55.093Z,99.99
2017-07-08T01:18:07.698Z,99.99
2017-07-08T01:19:19.707Z,99.99
2017-07-08T01:20:32.371Z,99.99
2017-07-08T01:21:44.661Z,99.99
2017-07-08T01:22:56.615Z,99.99
2017-07-08T01:24:07.362Z,99.99
2017-07-08T01:25:19.682Z,99.99
2017-07-08T01:26:31.690Z,99.99
2017-07-08T01:27:43.914Z,99.99
2017-07-08T01:28:56.493Z,99.99
2017-07-08T01:30:09.121Z,99.99
2017-07-08T01:31:21.438Z,99.99
2017-07-08T01:32:33.780Z,99.99
2017-07-08T01:33:46.439Z,99.99
2017-07-08T01:34:59.026Z,99.99
2017-07-08T01:36:11.669Z,99.99
2017-07-08T01:37:24.285Z,99.99
2017-07-08T01:38:36.588Z,99.99
2017-07-08T01:39:49.187Z,99.99
2017-07-08T01:41:01.789Z,99.99
2017-07-08T01:42:14.369Z,99.99
2017-07-08T01:43:27.007Z,99.99
2017-07-08T01:44:39.642Z,99.99
2017-07-08T01:45:52.236Z,99.99
2017-07-08T01:47:04.853Z,99.99
2017-07-08T01:48:17.172Z,99.99
2017-07-08T01:49:29.816Z,99.99
2017-07-08T01:50:42.369Z,99.99
2017-07-08T01:51:54.343Z,99.99
2017-07-08T01:53:06.962Z,99.99
2017-07-08T01:54:19.629Z,99.99
2017-07-08T01:55:32.239Z,99.99
2017-07-08T01:56:44.877Z,99.99
2017-07-08T01:57:57.562Z,99.99
2017-07-08T01:59:10.183Z,99.99
2017-07-08T02:00:22.438Z,99.99
2017-07-08T02:01:35.061Z,99.99
2017-07-08T02:02:47.709Z,99.99
2017-07-08T02:03:59.710Z,99.99
2017-07-08T02:05:12.311Z,99.99
2017-07-08T02:06:24.944Z,99.99
2017-07-08T02:07:37.292Z,99.99
2017-07-08T02:08:49.045Z,99.99
2017-07-08T02:10:00.375Z,99.99
2017-07-08T02:11:12.339Z,99.99
2017-07-08T02:12:24.877Z,99.99
2017-07-08T02:13:37.440Z,99.99
2017-07-08T02:14:50.008Z,99.99
2017-07-08T02:16:02.596Z,99.99
2017-07-08T02:17:14.584Z,99.99
2017-07-08T02:18:27.153Z,99.99
2017-07-08T02:19:39.392Z,99.99
2017-07-08T02:20:52.018Z,99.99
2017-07-08T02:22:04.626Z,99.99
2017-07-08T02:23:16.685Z,99.99
2017-07-08T02:24:28.605Z,99.99
2017-07-08T02:25:40.522Z,99.99
2017-07-08T02:26:53.118Z,99.99
2017-07-08T02:28:05.383Z,99.99
2017-07-08T02:29:18.014Z,99.99
2017-07-08T02:30:30.659Z,99.99
2017-07-08T02:31:42.611Z,99.99
2017-07-08T02:32:54.604Z,99.99
2017-07-08T02:34:06.904Z,99.99
2017-07-08T02:35:19.539Z,99.99
2017-07-08T02:36:31.801Z,99.99
2017-07-08T02:37:44.087Z,99.99
2017-07-08T02:38:56.782Z,99.99
2017-07-08T02:40:09.077Z,99.99
2017-07-08T02:41:21.719Z,99.99
2017-07-08T02:42:33.988Z,99.99
2017-07-08T02:43:46.614Z,99.99
2017-07-08T02:44:59.169Z,99.99
2017-07-08T02:46:11.428Z,99.99
2017-07-08T02:47:23.761Z,99.99
2017-07-08T02:48:36.321Z,99.99
2017-07-08T02:49:48.620Z,99.99
2017-07-08T02:51:01.245Z,99.99
2017-07-08T02:52:13.465Z,99.99
2017-07-08T02:53:25.445Z,99.99
2017-07-08T02:54:37.725Z,99.99
2017-07-08T02:55:50.331Z,99.99
2017-07-08T02:57:02.916Z,99.99
2017-07-08T02:58:15.538Z,99.99
2017-07-08T02:59:27.805Z,99.99
2017-07-08T03:00:40.386Z,99.99
2017-07-08T03:01:52.968Z,99.99
2017-07-08T03:03:05.244Z,99.99
2017-07-08T03:04:17.872Z,99.99
2017-07-08T03:05:30.498Z,99.99
2017-07-08T03:06:43.159Z,99.99
2017-07-08T03:07:55.732Z,99.99
2017-07-08T03:09:07.729Z,99.99
2017-07-08T03:10:20.330Z,99.99
2017-07-08T03:11:32.699Z,99.99
2017-07-08T03:12:45.324Z,99.99
2017-07-08T03:13:57.541Z,99.99
2017-07-08T03:15:09.834Z,99.99
2017-07-08T03:16:22.143Z,99.99
2017-07-08T03:17:34.444Z,99.99
2017-07-08T03:18:46.693Z,99.99
2017-07-08T03:19:59.383Z,99.99
2017-07-08T03:21:11.675Z,99.99
2017-07-08T03:22:24.302Z,99.99
2017-07-08T03:23:35.680Z,99.99
2017-07-08T03:24:47.997Z,99.99
2017-07-08T03:26:00.355Z,99.99
2017-07-08T03:27:12.347Z,99.99
2017-07-08T03:28:24.890Z,99.99
2017-07-08T03:29:37.189Z,99.99
2017-07-08T03:30:49.435Z,99.99
2017-07-08T03:32:02.144Z,99.99
2017-07-08T03:33:13.881Z,99.99
2017-07-08T03:34:26.274Z,99.99
2017-07-08T03:35:38.882Z,99.99
2017-07-08T03:36:51.453Z,99.99
2017-07-08T03:38:03.770Z,99.99
2017-07-08T03:39:16.274Z,99.99
2017-07-08T03:40:28.925Z,99.99
2017-07-08T03:41:41.193Z,99.99
2017-07-08T03:42:53.207Z,99.99
2017-07-08T03:44:05.454Z,99.99
2017-07-08T03:45:18.075Z,99.99
2017-07-08T03:46:30.384Z,99.99
2017-07-08T03:47:42.706Z,99.99
2017-07-08T03:48:55.020Z,99.99
2017-07-08T03:50:07.590Z,99.99
2017-07-08T03:51:20.222Z,99.99
2017-07-08T03:52:32.791Z,99.99
2017-07-08T03:53:45.142Z,99.99
2017-07-08T03:54:57.132Z,99.99
2017-07-08T03:56:09.418Z,99.99
2017-07-08T03:57:22.034Z,99.99
2017-07-08T03:58:34.604Z,99.99
2017-07-08T03:59:47.173Z,99.99
2017-07-08T04:00:59.742Z,99.99
2017-07-08T04:02:12.081Z,99.99
2017-07-08T04:03:24.662Z,99.99
2017-07-08T04:04:36.915Z,99.99
2017-07-08T04:05:49.211Z,99.99
2017-07-08T04:07:01.804Z,99.99
2017-07-08T04:08:13.461Z,99.99
2017-07-08T04:09:25.807Z,99.99
2017-07-08T04:10:38.396Z,99.99
2017-07-08T04:11:50.994Z,99.99
2017-07-08T04:13:03.586Z,99.99
2017-07-08T04:14:15.873Z,99.99
2017-07-08T04:15:28.474Z,99.99
2017-07-08T04:16:41.058Z,99.99
2017-07-08T04:17:53.399Z,99.99
2017-07-08T04:19:05.693Z,99.99
2017-07-08T04:20:17.694Z,99.99
2017-07-08T04:21:30.274Z,99.99
2017-07-08T04:22:43.079Z,99.99
2017-07-08T04:23:55.004Z,99.99
2017-07-08T04:25:07.659Z,99.99
2017-07-08T04:26:20.017Z,99.99
2017-07-08T04:27:32.289Z,99.99
2017-07-08T04:28:44.539Z,99.99
2017-07-08T04:29:56.881Z,99.99
2017-07-08T04:31:09.527Z,99.99
2017-07-08T04:32:22.134Z,99.99
2017-07-08T04:33:35.026Z,99.99
2017-07-08T04:34:47.739Z,99.99
2017-07-08T04:36:00.039Z,99.99
2017-07-08T04:37:12.337Z,99.99
2017-07-08T04:38:24.898Z,99.99
2017-07-08T04:39:37.174Z,99.99
2017-07-08T04:40:49.811Z,99.99
2017-07-08T04:42:02.064Z,99.99
2017-07-08T04:43:13.375Z,99.99
2017-07-08T04:44:25.970Z,99.99
2017-07-08T04:45:37.942Z,99.99
2017-07-08T04:46:50.280Z,99.99
2017-07-08T04:48:02.908Z,99.99
2017-07-08T04:49:15.180Z,99.99
2017-07-08T04:50:27.804Z,99.99
2017-07-08T04:51:40.382Z,99.99
2017-07-08T04:52:52.641Z,99.99
2017-07-08T04:54:04.918Z,99.99
2017-07-08T04:55:17.495Z,99.99
2017-07-08T04:56:29.816Z,99.99
2017-07-08T04:57:42.143Z,99.99
2017-07-08T04:58:54.446Z,99.99
2017-07-08T05:00:06.766Z,99.99
2017-07-08T05:01:19.023Z,99.99
2017-07-08T05:02:31.656Z,99.99
2017-07-08T05:03:44.234Z,99.99
2017-07-08T05:04:56.486Z,99.99
2017-07-08T05:06:08.807Z,99.99
2017-07-08T05:07:20.770Z,99.99
2017-07-08T05:08:32.132Z,99.99
2017-07-08T05:09:43.771Z,99.99
2017-07-08T05:10:55.741Z,99.99
2017-07-08T05:12:08.012Z,99.99
2017-07-08T05:13:20.012Z,99.99
2017-07-08T05:14:32.001Z,99.99
2017-07-08T05:15:44.275Z,99.99
2017-07-08T05:16:56.876Z,99.99
2017-07-08T05:18:09.434Z,99.99
2017-07-08T05:19:22.045Z,99.99
2017-07-08T05:20:34.029Z,99.99
2017-07-08T05:21:46.297Z,99.99
2017-07-08T05:22:58.864Z,99.99
2017-07-08T05:24:10.245Z,99.99
2017-07-08T05:25:22.903Z,99.99
2017-07-08T05:26:35.534Z,99.99
2017-07-08T05:27:48.066Z,99.99
2017-07-08T05:29:00.372Z,99.99
2017-07-08T05:30:11.968Z,99.99
2017-07-08T05:31:24.560Z,99.99
2017-07-08T05:32:36.892Z,99.99
2017-07-08T05:33:49.179Z,99.99
2017-07-08T05:35:01.167Z,99.99
2017-07-08T05:36:13.801Z,99.99
2017-07-08T05:37:26.089Z,99.99
2017-07-08T05:38:38.079Z,99.99
2017-07-08T05:39:50.667Z,99.99
2017-07-08T05:41:02.977Z,99.99
2017-07-08T05:42:15.334Z,99.99
2017-07-08T05:43:27.881Z,99.99
2017-07-08T05:44:40.158Z,99.99
2017-07-08T05:45:52.461Z,99.99
2017-07-08T05:47:04.765Z,99.99
2017-07-08T05:48:16.713Z,99.99
2017-07-08T05:49:29.580Z,99.99
2017-07-08T05:50:41.901Z,99.99
2017-07-08T05:51:53.902Z,99.99
2017-07-08T05:53:05.868Z,99.99
2017-07-08T05:54:18.153Z,99.99
2017-07-08T05:55:30.848Z,99.99
2017-07-08T05:56:43.097Z,99.99
2017-07-08T05:57:55.427Z,99.99
2017-07-08T05:59:07.735Z,99.99
2017-07-08T06:00:20.337Z,99.99
2017-07-08T06:01:32.645Z,99.99
2017-07-08T06:02:45.029Z,99.99
2017-07-08T06:03:56.957Z,99.99
2017-07-08T06:05:08.658Z,99.99
2017-07-08T06:06:20.594Z,99.99
2017-07-08T06:07:32.594Z,99.99
2017-07-08T06:08:44.869Z,99.99
2017-07-08T06:09:57.433Z,99.99
2017-07-08T06:11:10.036Z,99.99
2017-07-08T06:12:22.621Z,99.99
2017-07-08T06:13:34.930Z,99.99
2017-07-08T06:14:46.628Z,99.99
2017-07-08T06:15:58.891Z,99.99
2017-07-08T06:17:10.574Z,99.99
2017-07-08T06:18:22.926Z,99.99
2017-07-08T06:19:35.271Z,99.99
2017-07-08T06:20:47.575Z,99.99
2017-07-08T06:22:00.185Z,99.99
2017-07-08T06:23:11.513Z,99.99
2017-07-08T06:24:22.537Z,99.99
2017-07-08T06:25:34.834Z,99.99
2017-07-08T06:26:47.484Z,99.99
2017-07-08T06:28:00.371Z,99.99
2017-07-08T06:29:12.346Z,99.99
2017-07-08T06:30:24.684Z,99.99
2017-07-08T06:31:37.042Z,99.99
2017-07-08T06:32:49.715Z,99.99
2017-07-08T06:34:01.660Z,99.99
2017-07-08T06:35:13.325Z,99.99
2017-07-08T06:36:25.294Z,99.99
2017-07-08T06:37:37.904Z,99.99
2017-07-08T06:38:50.487Z,99.99
2017-07-08T06:40:02.437Z,99.99
2017-07-08T06:41:14.731Z,99.99
2017-07-08T06:42:27.313Z,99.99
2017-07-08T06:43:39.602Z,99.99
2017-07-08T06:44:52.200Z,99.99
2017-07-08T06:46:04.419Z,99.99
2017-07-08T06:47:16.023Z,99.99
2017-07-08T06:48:28.328Z,99.99
2017-07-08T06:49:40.643Z,99.99
2017-07-08T06:50:53.262Z,99.99
2017-07-08T06:52:05.600Z,99.99
2017-07-08T06:53:18.187Z,99.99
2017-07-08T06:54:30.415Z,99.99
2017-07-08T06:55:42.706Z,99.99
2017-07-08T06:56:55.357Z,99.99
2017-07-08T06:58:07.990Z,99.99
2017-07-08T06:59:20.015Z,99.99
2017-07-08T07:00:32.644Z,99.99
2017-07-08T07:01:44.991Z,99.99
2017-07-08T07:02:57.586Z,99.99
2017-07-08T07:04:10.156Z,99.99
2017-07-08T07:05:22.513Z,99.99
2017-07-08T07:06:35.173Z,99.99
2017-07-08T07:07:47.847Z,99.99
2017-07-08T07:09:00.136Z,99.99
2017-07-08T07:10:12.388Z,99.99
2017-07-08T07:11:24.683Z,99.99
2017-07-08T07:12:37.298Z,99.99
2017-07-08T07:13:49.887Z,99.99
2017-07-08T07:15:01.515Z,99.99
2017-07-08T07:16:13.817Z,99.99
2017-07-08T07:17:25.811Z,99.99
2017-07-08T07:18:38.113Z,99.99
2017-07-08T07:19:50.685Z,99.99
2017-07-08T07:21:03.360Z,99.99
2017-07-08T07:22:15.391Z,99.99
2017-07-08T07:23:27.049Z,99.99
2017-07-08T07:24:39.313Z,99.99
2017-07-08T07:25:51.586Z,99.99
2017-07-08T07:27:03.567Z,99.99
2017-07-08T07:28:15.837Z,99.99
2017-07-08T07:29:28.464Z,99.99
2017-07-08T07:30:40.447Z,99.99
2017-07-08T07:31:52.730Z,99.99
2017-07-08T07:33:05.033Z,99.99
2017-07-08T07:34:17.002Z,99.99
2017-07-08T07:35:28.981Z,99.99
2017-07-08T07:36:41.305Z,99.99
2017-07-08T07:37:53.873Z,99.99
2017-07-08T07:39:06.465Z,99.99
2017-07-08T07:40:17.541Z,99.99
2017-07-08T07:41:29.822Z,99.99
2017-07-08T07:42:41.779Z,99.99
2017-07-08T07:43:53.447Z,99.99
2017-07-08T07:45:05.793Z,99.99
2017-07-08T07:46:17.844Z,99.99
2017-07-08T07:47:30.142Z,99.99
2017-07-08T07:48:42.751Z,99.99
2017-07-08T07:49:55.026Z,99.99
2017-07-08T07:51:07.390Z,99.99
2017-07-08T07:52:20.007Z,99.99
2017-07-08T07:53:31.321Z,99.99
2017-07-08T07:54:43.584Z,99.99
2017-07-08T07:55:56.205Z,99.99
2017-07-08T07:57:08.813Z,99.99
2017-07-08T07:58:21.079Z,99.99
2017-07-08T07:59:33.707Z,99.99
2017-07-08T08:00:45.364Z,99.99
2017-07-08T08:01:57.334Z,99.99
2017-07-08T08:03:09.294Z,99.99
2017-07-08T08:04:21.898Z,99.99
2017-07-08T08:05:34.205Z,99.99
2017-07-08T08:06:46.192Z,99.99
2017-07-08T08:07:58.167Z,99.99
2017-07-08T08:09:10.107Z,99.99
2017-07-08T08:10:22.374Z,99.99
2017-07-08T08:11:34.951Z,99.99
2017-07-08T08:12:46.921Z,99.99
2017-07-08T08:13:59.219Z,99.99
2017-07-08T08:15:11.516Z,99.99
2017-07-08T08:16:24.109Z,99.99
2017-07-08T08:17:36.153Z,99.99
2017-07-08T08:18:48.117Z,99.99
2017-07-08T08:20:00.505Z,99.99
2017-07-08T08:21:13.031Z,99.99
2017-07-08T08:22:25.302Z,99.99
2017-07-08T08:23:36.679Z,99.99
2017-07-08T08:24:49.320Z,99.99
2017-07-08T08:26:01.599Z,99.99
2017-07-08T08:27:14.211Z,99.99
2017-07-08T08:28:26.471Z,99.99
2017-07-08T08:29:39.029Z,99.99
2017-07-08T08:30:51.565Z,99.99
2017-07-08T08:32:03.808Z,99.99
2017-07-08T08:33:15.828Z,99.99
2017-07-08T08:34:28.081Z,99.99
2017-07-08T08:35:40.720Z,99.99
2017-07-08T08:36:52.367Z,99.99
2017-07-08T08:38:04.688Z,99.99
2017-07-08T08:39:17.283Z,99.99
2017-07-08T08:40:29.933Z,99.99
2017-07-08T08:41:42.228Z,99.99
2017-07-08T08:42:54.564Z,99.99
2017-07-08T08:44:07.187Z,99.99
2017-07-08T08:45:19.759Z,99.99
2017-07-08T08:46:31.766Z,99.99
2017-07-08T08:47:43.758Z,99.99
2017-07-08T08:48:56.151Z,99.99
2017-07-08T08:50:08.397Z,99.99
2017-07-08T08:51:20.655Z,99.99
2017-07-08T08:52:33.251Z,99.99
2017-07-08T08:53:45.871Z,99.99
2017-07-08T08:54:58.557Z,99.99
2017-07-08T08:56:10.840Z,99.99
2017-07-08T08:57:23.161Z,99.99
2017-07-08T08:58:35.091Z,99.99
2017-07-08T08:59:47.736Z,99.99
2017-07-08T09:01:00.012Z,99.99
2017-07-08T09:02:12.014Z,99.99
2017-07-08T09:03:24.266Z,99.99
2017-07-08T09:04:36.580Z,99.99
2017-07-08T09:05:48.881Z,99.99
2017-07-08T09:07:01.543Z,99.99
2017-07-08T09:08:14.085Z,99.99
2017-07-08T09:09:26.660Z,99.99
2017-07-08T09:10:39.027Z,99.99
2017-07-08T09:11:51.321Z,99.99
2017-07-08T09:13:03.921Z,99.99
2017-07-08T09:14:16.186Z,99.99
2017-07-08T09:15:28.774Z,99.99
2017-07-08T09:16:41.070Z,99.99
2017-07-08T09:17:53.049Z,99.99
2017-07-08T09:19:05.325Z,99.99
2017-07-08T09:20:17.925Z,99.99
2017-07-08T09:21:30.514Z,99.99
2017-07-08T09:22:42.798Z,99.99
2017-07-08T09:23:54.428Z,99.99
2017-07-08T09:25:06.352Z,99.99
2017-07-08T09:26:18.573Z,99.99
2017-07-08T09:27:30.883Z,99.99
2017-07-08T09:28:42.837Z,99.99
2017-07-08T09:29:55.089Z,99.99
2017-07-08T09:31:07.353Z,99.99
2017-07-08T09:32:19.637Z,99.99
2017-07-08T09:33:31.958Z,99.99
2017-07-08T09:34:44.556Z,99.99
2017-07-08T09:35:56.856Z,99.99
2017-07-08T09:37:09.112Z,99.99
2017-07-08T09:38:21.773Z,99.99
2017-07-08T09:39:34.349Z,99.99
2017-07-08T09:40:46.597Z,99.99
2017-07-08T09:41:59.227Z,99.99
2017-07-08T09:43:12.017Z,99.99
2017-07-08T09:44:24.663Z,99.99
2017-07-08T09:45:36.338Z,99.99
2017-07-08T09:46:48.919Z,99.99
2017-07-08T09:48:01.596Z,99.99
2017-07-08T09:49:13.560Z,99.99
2017-07-08T09:50:25.838Z,99.99
2017-07-08T09:51:38.152Z,99.99
2017-07-08T09:52:50.433Z,99.99
2017-07-08T09:54:02.418Z,99.99
2017-07-08T09:55:14.415Z,99.99
2017-07-08T09:56:26.701Z,99.99
2017-07-08T09:57:39.297Z,99.99
2017-07-08T09:58:51.629Z,99.99
2017-07-08T10:00:03.642Z,99.99
2017-07-08T10:01:15.920Z,99.99
2017-07-08T10:02:27.882Z,99.99
2017-07-08T10:03:40.144Z,99.99
2017-07-08T10:04:52.418Z,99.99
2017-07-08T10:06:04.687Z,99.99
2017-07-08T10:07:16.957Z,99.99
2017-07-08T10:08:29.235Z,99.99
2017-07-08T10:09:41.212Z,99.99
2017-07-08T10:10:53.498Z,99.99
2017-07-08T10:12:05.532Z,99.99
2017-07-08T10:13:17.799Z,99.99
2017-07-08T10:14:30.168Z,99.99
2017-07-08T10:15:42.678Z,99.99
2017-07-08T10:16:54.018Z,99.99
2017-07-08T10:18:05.347Z,99.99
2017-07-08T10:19:17.909Z,99.99
2017-07-08T10:20:30.162Z,99.99
2017-07-08T10:21:42.556Z,99.99
2017-07-08T10:22:54.791Z,99.99
2017-07-08T10:24:06.427Z,99.99
2017-07-08T10:25:18.714Z,99.99
2017-07-08T10:26:31.327Z,99.99
2017-07-08T10:27:43.680Z,99.99
2017-07-08T10:28:55.990Z,99.99
2017-07-08T10:30:08.257Z,99.99
2017-07-08T10:31:20.769Z,99.99
2017-07-08T10:32:33.372Z,99.99
2017-07-08T10:33:45.360Z,99.99
2017-07-08T10:34:57.670Z,99.99
2017-07-08T10:36:09.313Z,99.99
2017-07-08T10:37:21.912Z,99.99
2017-07-08T10:38:34.119Z,99.99
2017-07-08T10:39:46.384Z,99.99
2017-07-08T10:40:58.699Z,99.99
2017-07-08T10:42:11.236Z,99.99
2017-07-08T10:43:23.811Z,99.99
2017-07-08T10:44:36.081Z,99.99
2017-07-08T10:45:48.339Z,99.99
2017-07-08T10:47:01.007Z,99.99
2017-07-08T10:48:13.306Z,99.99
2017-07-08T10:49:25.858Z,99.99
2017-07-08T10:50:38.137Z,99.99
2017-07-08T10:51:50.758Z,99.99
2017-07-08T10:53:02.459Z,99.99
2017-07-08T10:54:14.377Z,99.99
2017-07-08T10:55:26.977Z,99.99
2017-07-08T10:56:39.266Z,99.99
2017-07-08T10:57:51.887Z,99.99
2017-07-08T10:59:04.164Z,99.99
2017-07-08T11:00:16.102Z,99.99
2017-07-08T11:01:28.374Z,99.99
2017-07-08T11:02:40.649Z,99.99
2017-07-08T11:03:52.329Z,99.99
2017-07-08T11:05:04.041Z,99.99
2017-07-08T11:06:15.388Z,99.99
2017-07-08T11:07:27.930Z,99.99
2017-07-08T11:08:40.196Z,99.99
2017-07-08T11:09:52.154Z,99.99
2017-07-08T11:11:04.167Z,99.99
2017-07-08T11:12:16.106Z,99.99
2017-07-08T11:13:28.384Z,99.99
2017-07-08T11:14:40.980Z,99.99
2017-07-08T11:15:52.913Z,99.99
2017-07-08T11:17:04.884Z,99.55
2017-07-08T11:18:16.795Z,99.99
2017-07-08T11:19:29.076Z,99.99
2017-07-08T11:20:41.377Z,99.99
2017-07-08T11:21:53.958Z,99.55
2017-07-08T11:23:05.626Z,99.46
2017-07-08T11:24:17.285Z,99.84
2017-07-08T11:25:29.568Z,99.99
2017-07-08T11:26:42.185Z,99.99
2017-07-08T11:27:54.173Z,99.6
2017-07-08T11:29:06.501Z,99.6
2017-07-08T11:30:18.831Z,98.54
2017-07-08T11:31:31.148Z,96.55
2017-07-08T11:32:43.061Z,96.65
2017-07-08T11:33:55.633Z,95.29
2017-07-08T11:35:07.610Z,94.33
2017-07-08T11:36:20.275Z,95.2
2017-07-08T11:37:32.207Z,96.26
2017-07-08T11:38:44.511Z,94.91
2017-07-08T11:39:56.773Z,93.94
2017-07-08T11:41:09.391Z,93.85
2017-07-08T11:42:21.665Z,94.33
2017-07-08T11:43:33.683Z,95.59
2017-07-08T11:44:45.654Z,94.23
2017-07-08T11:45:56.381Z,96.26
2017-07-08T11:47:08.445Z,93.17
2017-07-08T11:48:21.059Z,93.75
2017-07-08T11:49:33.561Z,92.78
2017-07-08T11:50:45.876Z,92.4
2017-07-08T11:51:58.129Z,92.58
2017-07-08T11:53:10.151Z,91.14
2017-07-08T11:54:22.428Z,91.82
2017-07-08T11:55:35.036Z,91.38
2017-07-08T11:56:46.991Z,90.21
2017-07-08T11:57:58.984Z,90.45
2017-07-08T11:59:10.884Z,91.71
2017-07-08T12:00:22.879Z,91.22
2017-07-08T12:01:35.497Z,89.33
2017-07-08T12:02:48.069Z,86.95
2017-07-08T12:04:00.382Z,87.34
2017-07-08T12:05:12.110Z,85.74
2017-07-08T12:06:24.122Z,84.28
2017-07-08T12:07:36.464Z,85.54
2017-07-08T12:08:49.042Z,85.78
2017-07-08T12:10:01.601Z,84.85
2017-07-08T12:11:13.002Z,82.85
2017-07-08T12:12:25.634Z,80.71
2017-07-08T12:13:38.244Z,80.85
2017-07-08T12:14:50.602Z,80.07
2017-07-08T12:16:03.223Z,78.56
2017-07-08T12:17:15.175Z,78.69
2017-07-08T12:18:27.166Z,77.04
2017-07-08T12:19:38.873Z,77.17
2017-07-08T12:20:51.532Z,77.27
2017-07-08T12:22:03.815Z,76.82
2017-07-08T12:23:15.830Z,76.86
2017-07-08T12:24:27.208Z,75.89
2017-07-08T12:25:39.816Z,75.63
2017-07-08T12:26:51.521Z,73.58
2017-07-08T12:28:04.082Z,74.6
2017-07-08T12:29:16.765Z,74.15
2017-07-08T12:30:29.359Z,72
2017-07-08T12:31:41.975Z,70.96
2017-07-08T12:32:54.591Z,72.03
2017-07-08T12:34:06.589Z,71.19
2017-07-08T12:35:17.935Z,71.29
2017-07-08T12:36:30.508Z,69.82
2017-07-08T12:37:42.919Z,70.25
2017-07-08T12:38:55.564Z,68.23
2017-07-08T12:40:07.498Z,66.37
2017-07-08T12:41:20.056Z,65.72
2017-07-08T12:42:31.386Z,64.87
2017-07-08T12:43:43.649Z,64.77
2017-07-08T12:44:56.008Z,62.55
2017-07-08T12:46:07.684Z,63.14
2017-07-08T12:47:19.968Z,62.78
2017-07-08T12:48:32.593Z,63.43
2017-07-08T12:49:45.227Z,63.24
2017-07-08T12:50:57.188Z,63.89
2017-07-08T12:52:09.781Z,64.74
2017-07-08T12:53:22.446Z,63.76
2017-07-08T12:54:34.787Z,65
2017-07-08T12:55:47.365Z,65.3
2017-07-08T12:56:59.361Z,64.71
2017-07-08T12:58:11.974Z,63.93
2017-07-08T12:59:23.611Z,64.51
2017-07-08T13:00:36.215Z,64.81
2017-07-08T13:01:48.214Z,63.93
2017-07-08T13:03:01.015Z,64.12
2017-07-08T13:04:12.999Z,64
2017-07-08T13:05:25.250Z,64.78
2017-07-08T13:06:37.829Z,64.55
2017-07-08T13:07:50.459Z,65.23
2017-07-08T13:09:02.158Z,65.2
2017-07-08T13:10:14.768Z,65.14
2017-07-08T13:11:27.365Z,64.06
2017-07-08T13:12:39.710Z,64.16
2017-07-08T13:13:52.254Z,63.83
2017-07-08T13:15:04.552Z,64.42
2017-07-08T13:16:16.538Z,63.83
2017-07-08T13:17:28.812Z,64.42
2017-07-08T13:18:41.462Z,63.64
2017-07-08T13:19:53.445Z,64.06
2017-07-08T13:21:05.736Z,64.71
2017-07-08T13:22:17.737Z,66.31
2017-07-08T13:23:29.114Z,64.45
2017-07-08T13:24:41.343Z,63.6
2017-07-08T13:25:53.955Z,62.63
2017-07-08T13:27:06.505Z,63.21
2017-07-08T13:28:19.055Z,64.48
2017-07-08T13:29:31.594Z,63.7
2017-07-08T13:30:43.883Z,63.31
2017-07-08T13:31:55.859Z,63.41
2017-07-08T13:33:08.162Z,61.94
2017-07-08T13:34:20.471Z,62.4
2017-07-08T13:35:33.118Z,63.57
2017-07-08T13:36:45.776Z,63.38
2017-07-08T13:37:58.471Z,62.7
2017-07-08T13:39:10.118Z,62.79
2017-07-08T13:40:22.671Z,63.28
2017-07-08T13:41:35.321Z,63.57
2017-07-08T13:42:47.273Z,61.74
2017-07-08T13:43:59.259Z,62.7
2017-07-08T13:45:11.656Z,62.6
2017-07-08T13:46:24.168Z,62.53
2017-07-08T13:47:36.813Z,61.74
2017-07-08T13:48:48.475Z,62.43
2017-07-08T13:50:00.137Z,61.94
2017-07-08T13:51:11.819Z,62.46
2017-07-08T13:52:23.778Z,61.68
2017-07-08T13:53:35.806Z,60.7
2017-07-08T13:54:47.491Z,60.05
2017-07-08T13:56:00.067Z,60.24
2017-07-08T13:57:12.368Z,58.97
2017-07-08T13:58:24.658Z,60.73
2017-07-08T13:59:36.938Z,60.37
2017-07-08T14:00:48.887Z,59.49
2017-07-08T14:02:01.465Z,58.61
2017-07-08T14:03:14.067Z,59
2017-07-08T14:04:26.407Z,59.88
2017-07-08T14:05:38.764Z,59
2017-07-08T14:06:51.458Z,58.31
2017-07-08T14:08:04.081Z,58.12
2017-07-08T14:09:16.333Z,58.15
2017-07-08T14:10:28.262Z,57.66
2017-07-08T14:11:40.575Z,57.76
2017-07-08T14:12:52.828Z,57.46
2017-07-08T14:14:05.149Z,58.15
2017-07-08T14:15:17.772Z,58.25
2017-07-08T14:16:29.790Z,58.15
2017-07-08T14:17:42.390Z,56.68
2017-07-08T14:18:54.383Z,56.87
2017-07-08T14:20:06.391Z,57.46
2017-07-08T14:21:18.992Z,56.19
2017-07-08T14:22:31.207Z,57.34
2017-07-08T14:23:42.560Z,57.34
2017-07-08T14:24:55.394Z,56.75
2017-07-08T14:26:07.084Z,57.43
2017-07-08T14:27:19.705Z,55.87
2017-07-08T14:28:31.953Z,55.18
2017-07-08T14:29:44.520Z,55.87
2017-07-08T14:30:56.498Z,56.75
2017-07-08T14:32:08.144Z,57.92
2017-07-08T14:33:20.484Z,57.73
2017-07-08T14:34:32.806Z,56.85
2017-07-08T14:35:45.394Z,57.63
2017-07-08T14:36:56.748Z,57.92
2017-07-08T14:38:09.384Z,58.12
2017-07-08T14:39:21.664Z,58.28
2017-07-08T14:40:33.688Z,59.43
2017-07-08T14:41:45.973Z,59.72
2017-07-08T14:42:57.982Z,59.43
2017-07-08T14:44:10.252Z,60.57
2017-07-08T14:45:22.524Z,60.18
2017-07-08T14:46:35.106Z,60.96
2017-07-08T14:47:47.337Z,60.28
2017-07-08T14:48:59.934Z,60.25
2017-07-08T14:50:12.266Z,60.94
2017-07-08T14:51:24.272Z,61.43
2017-07-08T14:52:36.244Z,61.13
2017-07-08T14:53:48.246Z,60.81
2017-07-08T14:55:00.539Z,61.59
2017-07-08T14:56:13.165Z,61.4
2017-07-08T14:57:25.453Z,62.24
2017-07-08T14:58:38.000Z,62.5
2017-07-08T14:59:50.601Z,62.99
2017-07-08T15:01:02.868Z,63.74
2017-07-08T15:02:15.747Z,64.32
2017-07-08T15:03:27.715Z,65.59
2017-07-08T15:04:39.994Z,64.81
2017-07-08T15:05:52.591Z,64.59
2017-07-08T15:07:04.570Z,65.04
2017-07-08T15:08:16.796Z,65.63
2017-07-08T15:09:29.537Z,66.66
2017-07-08T15:10:41.524Z,68.29
2017-07-08T15:11:54.077Z,67.99
2017-07-08T15:13:06.674Z,68.35
2017-07-08T15:14:18.646Z,69.03
2017-07-08T15:15:30.894Z,69.58
2017-07-08T15:16:42.867Z,69.77
2017-07-08T15:17:54.812Z,69.25
2017-07-08T15:19:07.105Z,70.03
2017-07-08T15:20:19.051Z,70.03
2017-07-08T15:21:30.962Z,70.9
2017-07-08T15:22:43.266Z,70.87
2017-07-08T15:23:55.186Z,70.87
2017-07-08T15:25:07.131Z,71.36
2017-07-08T15:26:19.780Z,71.42
2017-07-08T15:27:32.067Z,71.42
2017-07-08T15:28:44.312Z,71.12
2017-07-08T15:29:56.949Z,72.25
2017-07-08T15:31:08.602Z,73.22
2017-07-08T15:32:20.915Z,72.74